sensor_id;sensor_type;location;lat;lon;timestamp;pressure;altitude;pressure_sealevel;temperature;humidity
46408;BME280;32110;45.724;21.276;2024-03-02T00:00:25;99969.72;;;10.88;nan
46408;BME280;32110;45.724;21.276;2024-03-02T00:02:52;99967.63;;;10.90;nan
46408;BME280;32110;45.724;21.276;2024-03-02T00:05:22;99969.13;;;10.85;nan
46408;BME280;32110;45.724;21.276;2024-03-02T00:07:55;99966.72;;;10.84;nan
46408;BME280;32110;45.724;21.276;2024-03-02T00:10:24;99973.28;;;10.81;nan
46408;BME280;32110;45.724;21.276;2024-03-02T00:12:54;99984.84;;;10.80;nan
46408;BME280;32110;45.724;21.276;2024-03-02T00:18:04;99969.75;;;10.76;nan
46408;BME280;32110;45.724;21.276;2024-03-02T00:20:30;99983.25;;;10.79;nan
46408;BME280;32110;45.724;21.276;2024-03-02T00:23:02;99983.59;;;10.83;nan
46408;BME280;32110;45.724;21.276;2024-03-02T00:25:39;99991.78;;;10.86;nan
46408;BME280;32110;45.724;21.276;2024-03-02T00:28:20;99971.59;;;10.75;nan
46408;BME280;32110;45.724;21.276;2024-03-02T00:31:07;99984.16;;;10.85;nan
46408;BME280;32110;45.724;21.276;2024-03-02T00:33:42;99971.03;;;10.73;nan
46408;BME280;32110;45.724;21.276;2024-03-02T00:36:09;99983.59;;;10.83;nan
46408;BME280;32110;45.724;21.276;2024-03-02T00:38:50;99967.84;;;10.71;nan
46408;BME280;32110;45.724;21.276;2024-03-02T00:41:25;99966.78;;;10.72;nan
46408;BME280;32110;45.724;21.276;2024-03-02T00:44:02;99985.88;;;10.79;nan
46408;BME280;32110;45.724;21.276;2024-03-02T00:46:41;99985.88;;;10.79;nan
46408;BME280;32110;45.724;21.276;2024-03-02T00:49:23;99974.47;;;10.74;nan
46408;BME280;32110;45.724;21.276;2024-03-02T00:51:51;99974.78;;;10.77;nan
46408;BME280;32110;45.724;21.276;2024-03-02T00:54:25;99967.13;;;10.76;nan
46408;BME280;32110;45.724;21.276;2024-03-02T00:56:52;99966.34;;;10.75;nan
46408;BME280;32110;45.724;21.276;2024-03-02T00:59:20;99972.63;;;10.74;nan
46408;BME280;32110;45.724;21.276;2024-03-02T01:01:47;99954.09;;;10.69;nan
46408;BME280;32110;45.724;21.276;2024-03-02T01:04:13;99956.16;;;10.67;nan
46408;BME280;32110;45.724;21.276;2024-03-02T01:06:39;99956.06;;;10.62;nan
46408;BME280;32110;45.724;21.276;2024-03-02T01:09:04;99949.59;;;10.53;nan
46408;BME280;32110;45.724;21.276;2024-03-02T01:11:30;99961.91;;;10.64;nan
46408;BME280;32110;45.724;21.276;2024-03-02T01:13:55;99971.31;;;10.60;nan
46408;BME280;32110;45.724;21.276;2024-03-02T01:16:21;99960.38;;;10.51;nan
46408;BME280;32110;45.724;21.276;2024-03-02T01:18:46;99971.22;;;10.55;nan
46408;BME280;32110;45.724;21.276;2024-03-02T01:21:12;99959.47;;;10.46;nan
46408;BME280;32110;45.724;21.276;2024-03-02T01:23:38;99958.88;;;10.43;nan
46408;BME280;32110;45.724;21.276;2024-03-02T01:26:03;99963.13;;;10.45;nan
46408;BME280;32110;45.724;21.276;2024-03-02T01:28:29;99947.59;;;10.31;nan
46408;BME280;32110;45.724;21.276;2024-03-02T01:30:54;99953.53;;;10.38;nan
46408;BME280;32110;45.724;21.276;2024-03-02T01:33:20;99951.59;;;10.34;nan
46408;BME280;32110;45.724;21.276;2024-03-02T01:35:46;99960.41;;;10.39;nan
46408;BME280;32110;45.724;21.276;2024-03-02T01:38:12;99966.69;;;10.38;nan
46408;BME280;32110;45.724;21.276;2024-03-02T01:40:38;99945.75;;;10.32;nan
46408;BME280;32110;45.724;21.276;2024-03-02T01:43:05;99947.38;;;10.33;nan
46408;BME280;32110;45.724;21.276;2024-03-02T01:45:31;99943.25;;;10.25;nan
46408;BME280;32110;45.724;21.276;2024-03-02T01:47:57;99936.84;;;10.21;nan
46408;BME280;32110;45.724;21.276;2024-03-02T01:50:31;99944.53;;;10.22;nan
46408;BME280;32110;45.724;21.276;2024-03-02T01:52:57;99945.53;;;10.21;nan
46408;BME280;32110;45.724;21.276;2024-03-02T01:55:22;99934.59;;;10.13;nan
46408;BME280;32110;45.724;21.276;2024-03-02T01:57:51;99942.59;;;10.18;nan
46408;BME280;32110;45.724;21.276;2024-03-02T02:00:18;99934.03;;;10.11;nan
46408;BME280;32110;45.724;21.276;2024-03-02T02:02:44;99923.84;;;10.02;nan
46408;BME280;32110;45.724;21.276;2024-03-02T02:05:09;99923.84;;;10.02;nan
46408;BME280;32110;45.724;21.276;2024-03-02T02:07:35;99927.63;;;10.07;nan
46408;BME280;32110;45.724;21.276;2024-03-02T02:10:01;99926.84;;;10.06;nan
46408;BME280;32110;45.724;21.276;2024-03-02T02:12:27;99901.47;;;9.88;nan
46408;BME280;32110;45.724;21.276;2024-03-02T02:14:53;99916.66;;;9.98;nan
46408;BME280;32110;45.724;21.276;2024-03-02T02:17:18;99903.31;;;9.88;nan
46408;BME280;32110;45.724;21.276;2024-03-02T02:19:44;99917.94;;;9.95;nan
46408;BME280;32110;45.724;21.276;2024-03-02T02:22:10;99900.91;;;9.86;nan
46408;BME280;32110;45.724;21.276;2024-03-02T02:24:35;99919.75;;;9.95;nan
46408;BME280;32110;45.724;21.276;2024-03-02T02:27:01;99906.50;;;9.90;nan
46408;BME280;32110;45.724;21.276;2024-03-02T02:29:27;99914.19;;;9.91;nan
46408;BME280;32110;45.724;21.276;2024-03-02T02:31:52;99892.81;;;9.76;nan
46408;BME280;32110;45.724;21.276;2024-03-02T02:34:17;99917.03;;;9.90;nan
46408;BME280;32110;45.724;21.276;2024-03-02T02:36:43;99917.50;;;9.87;nan
46408;BME280;32110;45.724;21.276;2024-03-02T02:39:11;99873.75;;;9.57;nan
46408;BME280;32110;45.724;21.276;2024-03-02T02:41:38;99905.38;;;9.74;nan
46408;BME280;32110;45.724;21.276;2024-03-02T02:44:04;99919.22;;;9.81;nan
46408;BME280;32110;45.724;21.276;2024-03-02T02:46:30;99915.34;;;9.72;nan
46408;BME280;32110;45.724;21.276;2024-03-02T02:48:55;99918.91;;;9.66;nan
46408;BME280;32110;45.724;21.276;2024-03-02T02:51:21;99914.13;;;9.63;nan
46408;BME280;32110;45.724;21.276;2024-03-02T02:53:46;99915.13;;;9.62;nan
46408;BME280;32110;45.724;21.276;2024-03-02T02:56:12;99916.50;;;9.52;nan
46408;BME280;32110;45.724;21.276;2024-03-02T02:58:37;99910.91;;;9.49;nan
46408;BME280;32110;45.724;21.276;2024-03-02T03:01:03;99910.56;;;9.45;nan
46408;BME280;32110;45.724;21.276;2024-03-02T03:03:29;99910.81;;;9.44;nan
46408;BME280;32110;45.724;21.276;2024-03-02T03:05:54;99906.34;;;9.44;nan
46408;BME280;32110;45.724;21.276;2024-03-02T03:08:20;99904.19;;;9.41;nan
46408;BME280;32110;45.724;21.276;2024-03-02T03:10:45;99900.72;;;9.41;nan
46408;BME280;32110;45.724;21.276;2024-03-02T03:13:11;99865.00;;;9.16;nan
46408;BME280;32110;45.724;21.276;2024-03-02T03:15:37;99913.44;;;9.44;nan
46408;BME280;32110;45.724;21.276;2024-03-02T03:18:04;99910.00;;;9.43;nan
46408;BME280;32110;45.724;21.276;2024-03-02T03:20:30;99913.66;;;9.42;nan
46408;BME280;32110;45.724;21.276;2024-03-02T03:22:56;99906.91;;;9.34;nan
46408;BME280;32110;45.724;21.276;2024-03-02T03:25:22;99919.59;;;9.37;nan
46408;BME280;32110;45.724;21.276;2024-03-02T03:27:47;99919.03;;;9.35;nan
46408;BME280;32110;45.724;21.276;2024-03-02T03:30:13;99917.66;;;9.33;nan
46408;BME280;32110;45.724;21.276;2024-03-02T03:32:38;99911.25;;;9.29;nan
46408;BME280;32110;45.724;21.276;2024-03-02T03:35:04;99907.38;;;9.31;nan
46408;BME280;32110;45.724;21.276;2024-03-02T03:37:31;99907.81;;;9.28;nan
46408;BME280;32110;45.724;21.276;2024-03-02T03:40:00;99893.78;;;9.23;nan
46408;BME280;32110;45.724;21.276;2024-03-02T03:42:26;99894.94;;;9.27;nan
46408;BME280;32110;45.724;21.276;2024-03-02T03:44:52;99913.19;;;9.33;nan
46408;BME280;32110;45.724;21.276;2024-03-02T03:47:17;99898.94;;;9.29;nan
46408;BME280;32110;45.724;21.276;2024-03-02T03:49:43;99909.09;;;9.37;nan
46408;BME280;32110;45.724;21.276;2024-03-02T03:52:08;99914.44;;;9.43;nan
46408;BME280;32110;45.724;21.276;2024-03-02T03:54:33;99907.59;;;9.42;nan
46408;BME280;32110;45.724;21.276;2024-03-02T03:56:59;99898.78;;;9.36;nan
46408;BME280;32110;45.724;21.276;2024-03-02T03:59:24;99913.53;;;9.49;nan
46408;BME280;32110;45.724;21.276;2024-03-02T04:01:50;99901.88;;;9.45;nan
46408;BME280;32110;45.724;21.276;2024-03-02T04:04:15;99900.31;;;9.44;nan
46408;BME280;32110;45.724;21.276;2024-03-02T04:06:41;99891.47;;;9.38;nan
46408;BME280;32110;45.724;21.276;2024-03-02T04:09:06;99908.88;;;9.51;nan
46408;BME280;32110;45.724;21.276;2024-03-02T04:11:32;99916.97;;;9.49;nan
46408;BME280;32110;45.724;21.276;2024-03-02T04:13:58;99913.28;;;9.50;nan
46408;BME280;32110;45.724;21.276;2024-03-02T04:16:23;99895.94;;;9.37;nan
46408;BME280;32110;45.724;21.276;2024-03-02T04:18:49;99906.34;;;9.44;nan
46408;BME280;32110;45.724;21.276;2024-03-02T04:21:14;99858.03;;;9.10;nan
46408;BME280;32110;45.724;21.276;2024-03-02T04:23:39;99901.78;;;9.40;nan
46408;BME280;32110;45.724;21.276;2024-03-02T04:26:05;99912.88;;;9.42;nan
46408;BME280;32110;45.724;21.276;2024-03-02T04:28:30;99920.28;;;9.45;nan
46408;BME280;32110;45.724;21.276;2024-03-02T04:30:56;99921.66;;;9.47;nan
46408;BME280;32110;45.724;21.276;2024-03-02T04:33:21;99924.84;;;9.49;nan
46408;BME280;32110;45.724;21.276;2024-03-02T04:35:47;99914.69;;;9.41;nan
46408;BME280;32110;45.724;21.276;2024-03-02T04:38:12;99931.38;;;9.47;nan
46408;BME280;32110;45.724;21.276;2024-03-02T04:40:38;99926.91;;;9.47;nan
46408;BME280;32110;45.724;21.276;2024-03-02T04:43:03;99926.56;;;9.44;nan
46408;BME280;32110;45.724;21.276;2024-03-02T04:45:29;99929.53;;;9.47;nan
46408;BME280;32110;45.724;21.276;2024-03-02T04:47:54;99915.59;;;9.35;nan
46408;BME280;32110;45.724;21.276;2024-03-02T04:50:20;99946.91;;;9.48;nan
46408;BME280;32110;45.724;21.276;2024-03-02T04:52:45;99933.31;;;9.40;nan
46408;BME280;32110;45.724;21.276;2024-03-02T04:55:11;99936.25;;;9.43;nan
46408;BME280;32110;45.724;21.276;2024-03-02T04:58:02;99931.25;;;9.30;nan
46408;BME280;32110;45.724;21.276;2024-03-02T05:00:27;99911.69;;;9.14;nan
46408;BME280;32110;45.724;21.276;2024-03-02T05:02:53;99943.34;;;9.31;nan
46408;BME280;32110;45.724;21.276;2024-03-02T05:05:18;99911.25;;;9.05;nan
46408;BME280;32110;45.724;21.276;2024-03-02T05:07:44;99909.50;;;8.99;nan
46408;BME280;32110;45.724;21.276;2024-03-02T05:10:10;99956.84;;;9.23;nan
46408;BME280;32110;45.724;21.276;2024-03-02T05:12:37;99937.16;;;9.13;nan
46408;BME280;32110;45.724;21.276;2024-03-02T05:15:12;99953.28;;;9.17;nan
46408;BME280;32110;45.724;21.276;2024-03-02T05:17:39;99941.06;;;9.11;nan
46408;BME280;32110;45.724;21.276;2024-03-02T05:20:05;99954.88;;;9.18;nan
46408;BME280;32110;45.724;21.276;2024-03-02T05:22:33;99942.09;;;9.10;nan
46408;BME280;32110;45.724;21.276;2024-03-02T05:24:59;99960.94;;;9.19;nan
46408;BME280;32110;45.724;21.276;2024-03-02T05:27:26;99943.56;;;9.06;nan
46408;BME280;32110;45.724;21.276;2024-03-02T05:29:51;99954.41;;;9.09;nan
46408;BME280;32110;45.724;21.276;2024-03-02T05:32:17;99958.28;;;9.07;nan
46408;BME280;32110;45.724;21.276;2024-03-02T05:34:42;99949.50;;;9.01;nan
46408;BME280;32110;45.724;21.276;2024-03-02T05:37:08;99971.31;;;9.13;nan
46408;BME280;32110;45.724;21.276;2024-03-02T05:39:33;99976.78;;;9.12;nan
46408;BME280;32110;45.724;21.276;2024-03-02T05:41:59;99978.03;;;9.09;nan
46408;BME280;32110;45.724;21.276;2024-03-02T05:44:24;99974.97;;;9.01;nan
46408;BME280;32110;45.724;21.276;2024-03-02T05:46:50;99984.78;;;9.05;nan
46408;BME280;32110;45.724;21.276;2024-03-02T05:49:15;99971.75;;;8.99;nan
46408;BME280;32110;45.724;21.276;2024-03-02T05:51:41;99978.69;;;8.93;nan
46408;BME280;32110;45.724;21.276;2024-03-02T05:54:06;99987.00;;;8.90;nan
46408;BME280;32110;45.724;21.276;2024-03-02T05:56:32;99995.59;;;8.97;nan
46408;BME280;32110;45.724;21.276;2024-03-02T05:58:58;99987.13;;;8.95;nan
46408;BME280;32110;45.724;21.276;2024-03-02T06:01:47;99979.72;;;8.92;nan
46408;BME280;32110;45.724;21.276;2024-03-02T06:04:13;99986.00;;;8.91;nan
46408;BME280;32110;45.724;21.276;2024-03-02T06:06:39;99985.53;;;8.94;nan
46408;BME280;32110;45.724;21.276;2024-03-02T06:09:06;100000.75;;;9.04;nan
46408;BME280;32110;45.724;21.276;2024-03-02T06:11:36;99998.22;;;8.97;nan
46408;BME280;32110;45.724;21.276;2024-03-02T06:14:03;99996.38;;;8.98;nan
46408;BME280;32110;45.724;21.276;2024-03-02T06:16:29;99992.19;;;8.97;nan
46408;BME280;32110;45.724;21.276;2024-03-02T06:18:57;99997.22;;;8.98;nan
46408;BME280;32110;45.724;21.276;2024-03-02T06:21:24;99985.19;;;8.90;nan
46408;BME280;32110;45.724;21.276;2024-03-02T06:23:49;99987.25;;;8.88;nan
46408;BME280;32110;45.724;21.276;2024-03-02T06:26:15;100003.47;;;8.97;nan
46408;BME280;32110;45.724;21.276;2024-03-02T06:28:41;100009.19;;;8.94;nan
46408;BME280;32110;45.724;21.276;2024-03-02T06:31:06;100011.59;;;8.96;nan
46408;BME280;32110;45.724;21.276;2024-03-02T06:33:32;100010.34;;;8.98;nan
46408;BME280;32110;45.724;21.276;2024-03-02T06:35:57;100006.69;;;8.99;nan
46408;BME280;32110;45.724;21.276;2024-03-02T06:38:23;99999.94;;;8.91;nan
46408;BME280;32110;45.724;21.276;2024-03-02T06:40:48;100016.16;;;9.00;nan
46408;BME280;32110;45.724;21.276;2024-03-02T06:43:14;100007.34;;;8.94;nan
46408;BME280;32110;45.724;21.276;2024-03-02T06:45:39;99990.19;;;8.80;nan
46408;BME280;32110;45.724;21.276;2024-03-02T06:48:05;100006.56;;;8.94;nan
46408;BME280;32110;45.724;21.276;2024-03-02T06:50:31;100023.03;;;9.01;nan
46408;BME280;32110;45.724;21.276;2024-03-02T06:52:56;100031.69;;;9.02;nan
46408;BME280;32110;45.724;21.276;2024-03-02T06:55:22;100027.69;;;8.99;nan
46408;BME280;32110;45.724;21.276;2024-03-02T06:57:49;99985.13;;;8.79;nan
46408;BME280;32110;45.724;21.276;2024-03-02T07:00:15;100008.59;;;8.92;nan
46408;BME280;32110;45.724;21.276;2024-03-02T07:02:43;100022.22;;;9.01;nan
46408;BME280;32110;45.724;21.276;2024-03-02T07:05:10;100014.44;;;8.94;nan
46408;BME280;32110;45.724;21.276;2024-03-02T07:07:35;100027.81;;;9.04;nan
46408;BME280;32110;45.724;21.276;2024-03-02T07:10:03;100031.69;;;9.02;nan
46408;BME280;32110;45.724;21.276;2024-03-02T07:12:28;100035.69;;;9.04;nan
46408;BME280;32110;45.724;21.276;2024-03-02T07:14:54;100010.56;;;8.97;nan
46408;BME280;32110;45.724;21.276;2024-03-02T07:17:36;100035.34;;;9.01;nan
46408;BME280;32110;45.724;21.276;2024-03-02T07:20:02;100024.94;;;8.94;nan
46408;BME280;32110;45.724;21.276;2024-03-02T07:22:29;100044.81;;;9.02;nan
46408;BME280;32110;45.724;21.276;2024-03-02T07:24:55;100030.78;;;8.96;nan
46408;BME280;32110;45.724;21.276;2024-03-02T07:27:21;100039.00;;;9.00;nan
46408;BME280;32110;45.724;21.276;2024-03-02T07:29:46;100046.66;;;9.01;nan
46408;BME280;32110;45.724;21.276;2024-03-02T07:32:12;100028.22;;;8.89;nan
46408;BME280;32110;45.724;21.276;2024-03-02T07:34:37;100039.22;;;8.98;nan
46408;BME280;32110;45.724;21.276;2024-03-02T07:37:03;100048.25;;;9.02;nan
46408;BME280;32110;45.724;21.276;2024-03-02T07:39:29;100016.22;;;8.82;nan
46408;BME280;32110;45.724;21.276;2024-03-02T07:41:55;100049.19;;;9.08;nan
46408;BME280;32110;45.724;21.276;2024-03-02T07:44:21;100043.00;;;9.02;nan
46408;BME280;32110;45.724;21.276;2024-03-02T07:46:48;100056.16;;;9.14;nan
46408;BME280;32110;45.724;21.276;2024-03-02T07:49:15;100044.38;;;9.05;nan
46408;BME280;32110;45.724;21.276;2024-03-02T07:51:41;100051.59;;;9.09;nan
46408;BME280;32110;45.724;21.276;2024-03-02T07:54:07;100069.66;;;9.18;nan
46408;BME280;32110;45.724;21.276;2024-03-02T07:56:32;100061.28;;;9.09;nan
46408;BME280;32110;45.724;21.276;2024-03-02T07:58:58;100074.13;;;9.17;nan
46408;BME280;32110;45.724;21.276;2024-03-02T08:01:29;100064.03;;;9.14;nan
46408;BME280;32110;45.724;21.276;2024-03-02T08:03:59;100067.25;;;9.16;nan
46408;BME280;32110;45.724;21.276;2024-03-02T08:06:26;100072.88;;;9.20;nan
46408;BME280;32110;45.724;21.276;2024-03-02T08:08:57;100073.00;;;9.25;nan
46408;BME280;32110;45.724;21.276;2024-03-02T08:11:23;100056.97;;;9.14;nan
46408;BME280;32110;45.724;21.276;2024-03-02T08:13:49;100073.81;;;9.25;nan
46408;BME280;32110;45.724;21.276;2024-03-02T08:16:16;100075.19;;;9.28;nan
46408;BME280;32110;45.724;21.276;2024-03-02T08:18:45;100074.38;;;9.27;nan
46408;BME280;32110;45.724;21.276;2024-03-02T08:21:11;100065.44;;;9.16;nan
46408;BME280;32110;45.724;21.276;2024-03-02T08:23:37;100076.88;;;9.22;nan
46408;BME280;32110;45.724;21.276;2024-03-02T08:26:02;100086.28;;;9.30;nan
46408;BME280;32110;45.724;21.276;2024-03-02T08:28:28;100069.59;;;9.24;nan
46408;BME280;32110;45.724;21.276;2024-03-02T08:30:53;100077.00;;;9.27;nan
46408;BME280;32110;45.724;21.276;2024-03-02T08:33:19;100092.91;;;9.32;nan
46408;BME280;32110;45.724;21.276;2024-03-02T08:35:44;100095.75;;;9.31;nan
46408;BME280;32110;45.724;21.276;2024-03-02T08:38:10;100090.84;;;9.34;nan
46408;BME280;32110;45.724;21.276;2024-03-02T08:40:35;100091.44;;;9.36;nan
46408;BME280;32110;45.724;21.276;2024-03-02T08:43:01;100097.81;;;9.41;nan
46408;BME280;32110;45.724;21.276;2024-03-02T08:45:26;100102.88;;;9.42;nan
46408;BME280;32110;45.724;21.276;2024-03-02T08:47:52;100099.19;;;9.43;nan
46408;BME280;32110;45.724;21.276;2024-03-02T08:50:18;100091.09;;;9.45;nan
46408;BME280;32110;45.724;21.276;2024-03-02T08:52:43;100091.19;;;9.38;nan
46408;BME280;32110;45.724;21.276;2024-03-02T08:55:08;100104.03;;;9.46;nan
46408;BME280;32110;45.724;21.276;2024-03-02T08:57:36;100103.94;;;9.53;nan
46408;BME280;32110;45.724;21.276;2024-03-02T09:00:02;100110.56;;;9.55;nan
46408;BME280;32110;45.724;21.276;2024-03-02T09:02:28;100105.88;;;9.57;nan
46408;BME280;32110;45.724;21.276;2024-03-02T09:04:53;100103.03;;;9.59;nan
46408;BME280;32110;45.724;21.276;2024-03-02T09:07:19;100099.16;;;9.62;nan
46408;BME280;32110;45.724;21.276;2024-03-02T09:09:44;100072.13;;;9.43;nan
46408;BME280;32110;45.724;21.276;2024-03-02T09:12:10;100112.09;;;9.75;nan
46408;BME280;32110;45.724;21.276;2024-03-02T09:14:36;100113.00;;;9.80;nan
46408;BME280;32110;45.724;21.276;2024-03-02T09:17:02;100108.56;;;9.81;nan
46408;BME280;32110;45.724;21.276;2024-03-02T09:19:28;100103.53;;;9.79;nan
46408;BME280;32110;45.724;21.276;2024-03-02T09:21:54;100106.84;;;9.87;nan
46408;BME280;32110;45.724;21.276;2024-03-02T09:24:21;100101.59;;;9.87;nan
46408;BME280;32110;45.724;21.276;2024-03-02T09:26:47;100095.19;;;9.83;nan
46408;BME280;32110;45.724;21.276;2024-03-02T09:29:12;100107.78;;;9.92;nan
46408;BME280;32110;45.724;21.276;2024-03-02T09:31:41;100121.94;;;10.03;nan
46408;BME280;32110;45.724;21.276;2024-03-02T09:34:07;100114.19;;;10.08;nan
46408;BME280;32110;45.724;21.276;2024-03-02T09:36:33;100095.88;;;10.01;nan
46408;BME280;32110;45.724;21.276;2024-03-02T09:38:58;100122.31;;;10.18;nan
46408;BME280;32110;45.724;21.276;2024-03-02T09:41:24;100118.19;;;10.22;nan
46408;BME280;32110;45.724;21.276;2024-03-02T09:43:50;100083.75;;;10.12;nan
46408;BME280;32110;45.724;21.276;2024-03-02T09:46:16;100108.72;;;10.33;nan
46408;BME280;32110;45.724;21.276;2024-03-02T09:48:44;100096.25;;;10.29;nan
46408;BME280;32110;45.724;21.276;2024-03-02T09:51:10;100104.13;;;10.40;nan
46408;BME280;32110;45.724;21.276;2024-03-02T09:53:36;100078.03;;;10.27;nan
46408;BME280;32110;45.724;21.276;2024-03-02T09:56:02;100107.53;;;10.53;nan
46408;BME280;32110;45.724;21.276;2024-03-02T09:58:28;100093.50;;;10.47;nan
46408;BME280;32110;45.724;21.276;2024-03-02T10:00:53;100104.88;;;10.64;nan
46408;BME280;32110;45.724;21.276;2024-03-02T10:03:19;100107.41;;;10.71;nan
46408;BME280;32110;45.724;21.276;2024-03-02T10:05:46;100111.41;;;10.74;nan
46408;BME280;32110;45.724;21.276;2024-03-02T10:08:11;100107.84;;;10.80;nan
46408;BME280;32110;45.724;21.276;2024-03-02T10:10:38;100108.16;;;10.83;nan
46408;BME280;32110;45.724;21.276;2024-03-02T10:13:12;100116.75;;;10.91;nan
46408;BME280;32110;45.724;21.276;2024-03-02T10:15:40;100116.84;;;10.96;nan
46408;BME280;32110;45.724;21.276;2024-03-02T10:18:09;100111.56;;;10.96;nan
46408;BME280;32110;45.724;21.276;2024-03-02T10:20:39;100120.84;;;10.98;nan
46408;BME280;32110;45.724;21.276;2024-03-02T10:23:15;100134.59;;;11.00;nan
46408;BME280;32110;45.724;21.276;2024-03-02T10:25:43;100128.50;;;11.00;nan
46408;BME280;32110;45.724;21.276;2024-03-02T10:28:09;100117.09;;;10.94;nan
46408;BME280;32110;45.724;21.276;2024-03-02T10:30:35;100128.03;;;11.03;nan
46408;BME280;32110;45.724;21.276;2024-03-02T10:33:05;100124.94;;;11.06;nan
46408;BME280;32110;45.724;21.276;2024-03-02T10:35:32;100114.28;;;11.01;nan
46408;BME280;32110;45.724;21.276;2024-03-02T10:38:01;100106.75;;;11.04;nan
46408;BME280;32110;45.724;21.276;2024-03-02T10:40:29;100119.78;;;11.11;nan
46408;BME280;32110;45.724;21.276;2024-03-02T10:42:55;100120.88;;;11.15;nan
46408;BME280;32110;45.724;21.276;2024-03-02T10:45:21;100126.50;;;11.19;nan
46408;BME280;32110;45.724;21.276;2024-03-02T10:47:49;100107.41;;;11.12;nan
46408;BME280;32110;45.724;21.276;2024-03-02T10:50:15;100111.81;;;11.23;nan
46408;BME280;32110;45.724;21.276;2024-03-02T10:52:40;100114.91;;;11.20;nan
46408;BME280;32110;45.724;21.276;2024-03-02T10:55:07;100116.28;;;11.22;nan
46408;BME280;32110;45.724;21.276;2024-03-02T10:57:54;100120.06;;;11.26;nan
46408;BME280;32110;45.724;21.276;2024-03-02T11:00:26;100112.13;;;11.26;nan
46408;BME280;32110;45.724;21.276;2024-03-02T11:03:05;100109.72;;;11.25;nan
46408;BME280;32110;45.724;21.276;2024-03-02T11:05:38;100112.78;;;11.34;nan
46408;BME280;32110;45.724;21.276;2024-03-02T11:08:11;100117.59;;;11.37;nan
46408;BME280;32110;45.724;21.276;2024-03-02T11:10:43;100104.31;;;11.32;nan
46408;BME280;32110;45.724;21.276;2024-03-02T11:13:12;100113.09;;;11.37;nan
46408;BME280;32110;45.724;21.276;2024-03-02T11:15:40;100111.88;;;11.40;nan
46408;BME280;32110;45.724;21.276;2024-03-02T11:18:09;100102.34;;;11.39;nan
46408;BME280;32110;45.724;21.276;2024-03-02T11:20:37;100098.13;;;11.38;nan
46408;BME280;32110;45.724;21.276;2024-03-02T11:23:10;100095.56;;;11.43;nan
46408;BME280;32110;45.724;21.276;2024-03-02T11:25:36;100102.75;;;11.47;nan
46408;BME280;32110;45.724;21.276;2024-03-02T11:28:03;100097.16;;;11.44;nan
46408;BME280;32110;45.724;21.276;2024-03-02T11:32:57;100096.53;;;11.54;nan
46408;BME280;32110;45.724;21.276;2024-03-02T11:35:26;100103.72;;;11.58;nan
46408;BME280;32110;45.724;21.276;2024-03-02T11:37:54;100092.06;;;11.54;nan
46408;BME280;32110;45.724;21.276;2024-03-02T11:40:23;100108.06;;;11.64;nan
46408;BME280;32110;45.724;21.276;2024-03-02T11:42:50;100095.88;;;11.63;nan
46408;BME280;32110;45.724;21.276;2024-03-02T11:45:28;100091.88;;;11.61;nan
46408;BME280;32110;45.724;21.276;2024-03-02T11:47:55;100092.53;;;11.68;nan
46408;BME280;32110;45.724;21.276;2024-03-02T11:50:30;100090.72;;;11.68;nan
46408;BME280;32110;45.724;21.276;2024-03-02T11:52:58;100088.09;;;11.68;nan
46408;BME280;32110;45.724;21.276;2024-03-02T11:55:25;100096.53;;;11.70;nan
46408;BME280;32110;45.724;21.276;2024-03-02T11:57:54;100087.25;;;11.68;nan
46408;BME280;32110;45.724;21.276;2024-03-02T12:00:20;100092.38;;;11.75;nan
46408;BME280;32110;45.724;21.276;2024-03-02T12:02:47;100092.88;;;11.71;nan
46408;BME280;32110;45.724;21.276;2024-03-02T12:05:26;100068.88;;;11.56;nan
46408;BME280;32110;45.724;21.276;2024-03-02T12:07:57;100093.16;;;11.75;nan
46408;BME280;32110;45.724;21.276;2024-03-02T12:10:23;100098.53;;;11.80;nan
46408;BME280;32110;45.724;21.276;2024-03-02T12:12:55;100093.50;;;11.79;nan
46408;BME280;32110;45.724;21.276;2024-03-02T12:15:24;100087.44;;;11.78;nan
46408;BME280;32110;45.724;21.276;2024-03-02T12:17:55;100085.03;;;11.77;nan
46408;BME280;32110;45.724;21.276;2024-03-02T12:20:22;100086.72;;;11.83;nan
46408;BME280;32110;45.724;21.276;2024-03-02T12:22:52;100081.44;;;11.83;nan
46408;BME280;32110;45.724;21.276;2024-03-02T12:25:20;100086.00;;;11.87;nan
46408;BME280;32110;45.724;21.276;2024-03-02T12:27:47;100086.00;;;11.87;nan
46408;BME280;32110;45.724;21.276;2024-03-02T15:37:32;100104.44;;;11.54;nan
46408;BME280;32110;45.724;21.276;2024-03-02T19:57:34;100180.34;;;9.21;nan
46408;BME280;32110;45.724;21.276;2024-03-02T20:38:47;100189.28;;;8.40;nan
46408;BME280;32110;45.724;21.276;2024-03-02T22:28:00;100188.97;;;6.63;nan
46408;BME280;32110;45.724;21.276;2024-03-02T22:30:26;100196.19;;;6.60;nan
46408;BME280;32110;45.724;21.276;2024-03-02T22:32:52;100194.59;;;6.59;nan
46408;BME280;32110;45.724;21.276;2024-03-02T22:35:18;100185.97;;;6.52;nan
46408;BME280;32110;45.724;21.276;2024-03-02T22:37:43;100181.34;;;6.48;nan
46408;BME280;32110;45.724;21.276;2024-03-02T22:40:09;100181.75;;;6.51;nan
46408;BME280;32110;45.724;21.276;2024-03-02T22:42:36;100190.19;;;6.53;nan
46408;BME280;32110;45.724;21.276;2024-03-02T22:45:01;100193.41;;;6.49;nan
46408;BME280;32110;45.724;21.276;2024-03-02T22:47:27;100189.19;;;6.41;nan
46408;BME280;32110;45.724;21.276;2024-03-02T22:49:52;100185.34;;;6.44;nan
46408;BME280;32110;45.724;21.276;2024-03-02T22:52:21;100178.16;;;6.32;nan
46408;BME280;32110;45.724;21.276;2024-03-02T22:54:46;100189.41;;;6.39;nan
46408;BME280;32110;45.724;21.276;2024-03-02T22:57:12;100201.09;;;6.37;nan
46408;BME280;32110;45.724;21.276;2024-03-02T22:59:50;100207.09;;;6.37;nan
46408;BME280;32110;45.724;21.276;2024-03-02T23:02:16;100205.50;;;6.30;nan
46408;BME280;32110;45.724;21.276;2024-03-02T23:04:45;100202.09;;;6.23;nan
46408;BME280;32110;45.724;21.276;2024-03-02T23:29:04;100216.88;;;5.89;nan